Dixie, Idaho
Current Conditions -  °F | °C
As of 7:15 AM on Thursday 30 Oct 2014 (Local Time) from KGIC Reporting Station
Overcast Overcast  
Wind Chill: 43°   Ceiling: 8500
Heat Index: 43°   Visibility: 10mi
Dew Point: 40°   Wind: 3mph
Humidity: 89%   Direction: 210°SSW
Pressure: 30.17"   Gusts: NA
Location:  45.8865°N, 115.105°W
Report Text: KGIC 301415Z AUTO 21003KT 10SM OVC085 06/05 A3017 RMK AO1 T00620045
Loading
Personal Weather Stations






























Interactive Weather Map
Tropical Storm Tracking
New forecast layout! Learn more

10-Day Weather Forecast

Advertisements
Track Severe Weather on mobile